createdAt,value
2019-04-22T00:00:17.930Z,14.23
2019-04-22T00:02:51.636Z,11.00
2019-04-22T00:05:39.254Z,8.10
2019-04-22T00:08:18.144Z,15.83
2019-04-22T00:10:47.060Z,14.70
2019-04-22T00:13:25.838Z,24.20
2019-04-22T00:15:42.208Z,17.73
2019-04-22T00:18:40.007Z,18.90
2019-04-22T00:20:58.026Z,28.67
2019-04-22T00:23:24.927Z,20.53
2019-04-22T00:26:03.384Z,11.10
2019-04-22T00:28:41.171Z,23.13
2019-04-22T00:31:14.534Z,11.70
2019-04-22T00:33:48.657Z,9.40
2019-04-22T00:36:16.602Z,16.93
2019-04-22T00:38:52.685Z,21.17
2019-04-22T00:41:23.544Z,25.20
2019-04-22T00:43:59.628Z,13.67
2019-04-22T00:46:25.136Z,16.80
2019-04-22T00:49:46.432Z,18.80
2019-04-22T00:51:30.132Z,24.93
2019-04-22T00:54:03.430Z,23.70
2019-04-22T00:56:34.176Z,28.03
2019-04-22T00:59:09.295Z,13.40
2019-04-22T01:01:37.133Z,20.20
2019-04-22T01:04:14.771Z,14.17
2019-04-22T01:06:38.439Z,18.27
2019-04-22T01:09:31.317Z,21.20
2019-04-22T01:11:48.547Z,20.67
2019-04-22T01:14:21.995Z,22.73
2019-04-22T01:16:55.074Z,13.03
2019-04-22T01:19:26.374Z,18.60
2019-04-22T01:21:58.606Z,18.93
2019-04-22T01:24:27.341Z,21.67
2019-04-22T01:26:53.538Z,15.33
2019-04-22T01:29:21.525Z,25.93
2019-04-22T01:31:43.440Z,17.70
2019-04-22T01:34:32.155Z,23.13
2019-04-22T01:37:05.659Z,15.07
2019-04-22T01:39:45.522Z,16.37
2019-04-22T01:42:10.400Z,14.83
2019-04-22T01:44:45.259Z,17.13
2019-04-22T01:47:18.642Z,21.60
2019-04-22T01:49:52.726Z,22.57
2019-04-22T01:52:25.439Z,18.60
2019-04-22T01:54:56.919Z,15.70
2019-04-22T01:57:27.008Z,22.13
2019-04-22T01:59:51.484Z,14.87
2019-04-22T02:05:05.711Z,22.40
2019-04-22T02:07:37.055Z,13.90
2019-04-22T02:10:03.963Z,20.27
2019-04-22T02:12:38.781Z,16.93
2019-04-22T02:15:13.779Z,18.23
2019-04-22T02:17:44.849Z,14.00
2019-04-22T02:20:23.335Z,18.10
2019-04-22T02:23:40.260Z,31.97
2019-04-22T02:25:59.243Z,16.27
2019-04-22T02:28:32.312Z,14.33
2019-04-22T02:33:58.462Z,22.13
2019-04-22T02:36:18.730Z,21.77
2019-04-22T02:48:53.390Z,22.87
2019-04-22T02:54:15.159Z,12.53
2019-04-22T02:56:27.224Z,16.50
2019-04-22T03:01:29.961Z,18.40
2019-04-22T03:04:00.691Z,25.47
2019-04-22T03:16:43.248Z,22.53
2019-04-22T03:24:20.273Z,23.70
2019-04-22T03:29:28.150Z,21.40
2019-04-22T03:39:46.233Z,23.93
2019-04-22T03:42:09.876Z,21.40
2019-04-22T03:44:42.733Z,17.40
2019-04-22T03:47:31.458Z,19.97
2019-04-22T03:49:45.690Z,22.47
2019-04-22T03:54:54.492Z,11.37
2019-04-22T03:59:48.034Z,23.17
2019-04-22T04:07:46.182Z,16.93
2019-04-22T04:10:01.384Z,22.33
2019-04-22T04:12:30.098Z,23.77
2019-04-22T04:17:37.824Z,18.93
2019-04-22T04:20:10.715Z,21.90
2019-04-22T04:28:07.029Z,17.20
2019-04-22T04:30:29.416Z,17.03
2019-04-22T04:35:28.048Z,12.90
2019-04-22T04:42:58.535Z,16.83
2019-04-22T04:55:28.808Z,22.40
2019-04-22T05:05:39.591Z,21.30
2019-04-22T05:08:00.974Z,14.70
2019-04-22T05:10:53.593Z,12.73
2019-04-22T05:13:35.221Z,12.30
2019-04-22T05:18:24.038Z,16.50
2019-04-22T05:21:09.276Z,17.17
2019-04-22T05:23:28.820Z,18.00
2019-04-22T05:25:55.148Z,17.77
2019-04-22T05:28:16.494Z,14.57
2019-04-22T05:30:47.320Z,21.30
2019-04-22T05:33:21.425Z,17.87
2019-04-22T05:35:54.799Z,18.60
2019-04-22T05:38:33.267Z,17.90
2019-04-22T05:40:56.359Z,19.87
2019-04-22T05:43:29.149Z,18.63
2019-04-22T05:46:05.831Z,31.27
2019-04-22T05:48:41.592Z,19.93
2019-04-22T05:51:01.104Z,19.87
2019-04-22T05:53:32.410Z,27.37
2019-04-22T05:56:13.883Z,21.63
2019-04-22T05:58:49.591Z,25.20
2019-04-22T06:03:59.005Z,27.97
2019-04-22T06:06:25.976Z,31.97
2019-04-22T06:09:02.187Z,30.20
2019-04-22T06:14:02.621Z,31.10
2019-04-22T06:16:42.335Z,29.37
2019-04-22T06:19:07.619Z,35.23
2019-04-22T06:21:46.312Z,24.43
2019-04-22T06:24:16.623Z,29.23
2019-04-22T06:26:56.761Z,26.10
2019-04-22T06:29:16.380Z,32.03
2019-04-22T06:34:27.075Z,27.20
2019-04-22T06:36:51.072Z,28.17
2019-04-22T06:39:28.115Z,21.57
2019-04-22T06:41:53.461Z,31.57
2019-04-22T06:47:00.647Z,30.00
2019-04-22T06:49:31.938Z,29.73
2019-04-22T06:52:08.099Z,28.67
2019-04-22T06:54:32.962Z,28.37
2019-04-22T06:57:06.177Z,26.07
2019-04-22T06:59:36.273Z,28.67
2019-04-22T07:02:12.923Z,29.47
2019-04-22T07:04:44.261Z,24.40
2019-04-22T07:07:15.152Z,41.03
2019-04-22T07:09:48.666Z,23.93
2019-04-22T07:12:17.959Z,25.73
2019-04-22T07:14:49.851Z,17.30
2019-04-22T07:17:22.161Z,29.63
2019-04-22T07:19:52.917Z,33.00
2019-04-22T07:22:25.445Z,19.37
2019-04-22T07:27:43.498Z,22.20
2019-04-22T07:30:06.959Z,28.73
2019-04-22T07:32:53.761Z,29.13
2019-04-22T07:37:37.154Z,39.33
2019-04-22T07:40:02.330Z,38.43
2019-04-22T07:42:36.437Z,41.03
2019-04-22T07:45:10.666Z,32.03
2019-04-22T07:50:31.215Z,29.20
2019-04-22T07:52:38.840Z,34.30
2019-04-22T07:55:13.456Z,27.97
2019-04-22T07:57:47.945Z,25.00
2019-04-22T08:00:36.898Z,41.90
2019-04-22T08:02:50.470Z,28.47
2019-04-22T08:05:24.810Z,32.17
2019-04-22T08:08:02.587Z,24.80
2019-04-22T08:10:30.311Z,23.80
2019-04-22T08:12:57.878Z,26.83
2019-04-22T08:15:34.036Z,18.83
2019-04-22T08:18:04.980Z,34.13
2019-04-22T08:20:36.087Z,21.33
2019-04-22T08:23:13.848Z,38.03
2019-04-22T08:25:40.313Z,44.60
2019-04-22T08:28:13.457Z,27.63
2019-04-22T08:30:47.882Z,19.47
2019-04-22T08:33:22.167Z,40.73
2019-04-22T08:36:00.484Z,31.13
2019-04-22T08:38:14.679Z,18.23
2019-04-22T08:41:20.874Z,20.53
2019-04-22T08:43:47.717Z,17.67
2019-04-22T08:46:22.192Z,30.63
2019-04-22T08:48:49.525Z,19.07
2019-04-22T08:51:21.007Z,34.50
2019-04-22T08:53:57.260Z,40.10
2019-04-22T08:56:29.388Z,38.33
2019-04-22T08:58:56.986Z,27.10
2019-04-22T09:03:58.566Z,28.27
2019-04-22T09:09:02.045Z,48.53
2019-04-22T09:11:41.779Z,21.90
2019-04-22T09:14:02.967Z,37.07
2019-04-22T09:16:37.765Z,23.47
2019-04-22T09:19:10.761Z,23.50
2019-04-22T09:21:37.850Z,24.93
2019-04-22T09:24:10.319Z,47.50
2019-04-22T09:26:44.980Z,32.67
2019-04-22T09:29:20.844Z,31.00
2019-04-22T09:31:57.341Z,27.50
2019-04-22T09:34:23.532Z,70.67
2019-04-22T09:36:59.003Z,52.30
2019-04-22T09:39:23.079Z,52.47
2019-04-22T09:42:02.639Z,39.83
2019-04-22T09:44:31.080Z,51.93
2019-04-22T09:47:05.246Z,43.97
2019-04-22T09:49:41.102Z,27.47
2019-04-22T09:52:01.419Z,26.17
2019-04-22T09:54:38.703Z,26.40
2019-04-22T09:57:07.373Z,28.00
2019-04-22T09:59:48.551Z,30.57
2019-04-22T10:04:48.227Z,43.23
2019-04-22T10:07:20.003Z,29.80
2019-04-22T10:12:23.136Z,32.90
2019-04-22T10:14:49.221Z,31.67
2019-04-22T10:17:17.807Z,51.97
2019-04-22T10:19:53.042Z,34.97
2019-04-22T10:22:32.336Z,36.73
2019-04-22T10:24:57.062Z,34.33
2019-04-22T10:27:30.970Z,50.43
2019-04-22T10:30:00.113Z,38.10
2019-04-22T10:32:33.563Z,54.13
2019-04-22T10:35:04.961Z,38.70
2019-04-22T10:37:32.260Z,67.20
2019-04-22T10:40:05.749Z,42.17
2019-04-22T10:42:43.627Z,57.60
2019-04-22T10:45:14.605Z,113.17
2019-04-22T10:47:45.851Z,77.97
2019-04-22T10:50:16.611Z,74.87
2019-04-22T10:52:47.730Z,89.13
2019-04-22T10:55:19.111Z,68.87
2019-04-22T10:57:50.594Z,61.93
2019-04-22T11:00:21.817Z,59.10
2019-04-22T11:02:51.971Z,42.83
2019-04-22T11:05:24.091Z,55.97
2019-04-22T11:07:59.405Z,43.93
2019-04-22T11:10:36.959Z,42.10
2019-04-22T11:12:59.011Z,41.57
2019-04-22T11:15:30.626Z,59.03
2019-04-22T11:18:01.987Z,37.47
2019-04-22T11:20:33.744Z,36.17
2019-04-22T11:23:04.701Z,46.33
2019-04-22T11:25:36.147Z,45.13
2019-04-22T11:28:07.544Z,51.80
2019-04-22T11:30:40.624Z,69.07
2019-04-22T11:33:12.098Z,68.07
2019-04-22T11:35:43.770Z,39.10
2019-04-22T11:38:15.013Z,72.27
2019-04-22T11:40:49.941Z,65.20
2019-04-22T11:43:17.255Z,35.13
2019-04-22T11:45:47.436Z,56.20
2019-04-22T11:48:17.714Z,43.30
2019-04-22T11:50:48.107Z,56.10
2019-04-22T11:53:18.719Z,40.20
2019-04-22T11:55:49.227Z,50.47
2019-04-22T11:58:19.265Z,46.83
2019-04-22T12:00:51.950Z,66.70
2019-04-22T12:03:22.919Z,45.03
2019-04-22T12:05:53.644Z,42.97
2019-04-22T12:08:24.937Z,45.83
2019-04-22T12:10:59.092Z,63.03
2019-04-22T12:13:28.189Z,45.57
2019-04-22T12:15:58.948Z,58.10
2019-04-22T12:18:31.160Z,47.20
2019-04-22T12:21:01.437Z,58.17
2019-04-22T12:23:32.703Z,37.97
2019-04-22T12:26:08.926Z,34.73
2019-04-22T12:28:35.123Z,47.80
2019-04-22T12:31:05.802Z,45.80
2019-04-22T12:33:37.034Z,50.20
2019-04-22T12:36:10.694Z,44.93
2019-04-22T12:38:41.799Z,62.50
2019-04-22T12:41:13.890Z,44.80
2019-04-22T12:43:45.095Z,82.70
2019-04-22T12:46:16.364Z,61.67
2019-04-22T12:48:47.169Z,50.00
2019-04-22T12:51:18.721Z,52.50
2019-04-22T12:53:49.121Z,66.40
2019-04-22T12:56:19.684Z,80.37
2019-04-22T12:58:49.960Z,62.70
2019-04-22T13:01:21.225Z,38.83
2019-04-22T13:03:52.070Z,58.47
2019-04-22T13:06:23.570Z,47.07
2019-04-22T13:08:54.634Z,48.93
2019-04-22T13:11:30.295Z,45.87
2019-04-22T13:13:57.072Z,42.03
2019-04-22T13:16:27.139Z,41.10
2019-04-22T13:19:02.207Z,47.47
2019-04-22T13:21:29.252Z,48.63
2019-04-22T13:23:59.698Z,46.93
2019-04-22T13:26:29.968Z,44.07
2019-04-22T13:29:01.035Z,56.30
2019-04-22T13:31:33.033Z,41.77
2019-04-22T13:34:04.038Z,42.57
2019-04-22T13:36:36.369Z,46.23
2019-04-22T13:39:09.038Z,31.07
2019-04-22T13:41:48.022Z,38.47
2019-04-22T13:44:12.750Z,37.57
2019-04-22T13:49:56.619Z,48.30
2019-04-22T13:52:24.517Z,30.10
2019-04-22T13:53:53.504Z,56.00
2019-04-22T13:57:18.688Z,48.07
2019-04-22T13:59:38.134Z,56.70
2019-04-22T14:02:18.790Z,51.67
2019-04-22T14:04:50.796Z,65.20
2019-04-22T14:07:23.192Z,54.20
2019-04-22T14:09:56.081Z,90.40
2019-04-22T14:12:26.740Z,66.10
2019-04-22T14:14:58.403Z,78.33
2019-04-22T14:17:31.534Z,52.80
2019-04-22T14:20:04.692Z,54.13
2019-04-22T14:22:36.338Z,37.47
2019-04-22T14:25:07.035Z,84.53
2019-04-22T14:31:10.478Z,27.83
2019-04-22T14:33:44.811Z,34.67
2019-04-22T14:36:12.338Z,36.40
2019-04-22T14:38:43.829Z,33.40
2019-04-22T14:47:21.172Z,25.43
2019-04-22T14:49:56.030Z,34.87
2019-04-22T14:52:27.680Z,36.03
2019-04-22T14:54:49.226Z,26.73
2019-04-22T14:57:07.946Z,49.07
2019-04-22T14:59:38.144Z,36.53
2019-04-22T15:02:09.801Z,41.90
2019-04-22T15:04:41.601Z,79.93
2019-04-22T15:07:12.767Z,87.23
2019-04-22T15:09:43.958Z,97.20
2019-04-22T15:12:25.999Z,82.87
2019-04-22T15:14:47.999Z,167.80
2019-04-22T15:17:52.401Z,114.47
2019-04-22T15:20:47.490Z,112.20
2019-04-22T15:23:16.903Z,70.87
2019-04-22T15:25:48.308Z,75.30
2019-04-22T15:28:19.630Z,61.23
2019-04-22T15:30:51.080Z,102.37
2019-04-22T15:33:21.667Z,124.37
2019-04-22T15:35:51.792Z,162.27
2019-04-22T15:38:24.226Z,152.30
2019-04-22T15:40:54.548Z,123.77
2019-04-22T15:43:27.945Z,124.17
2019-04-22T15:46:00.030Z,220.83
2019-04-22T15:48:29.202Z,191.70
2019-04-22T15:51:00.552Z,244.90
2019-04-22T15:53:31.735Z,341.73
2019-04-22T15:56:03.080Z,270.13
2019-04-22T15:58:33.595Z,202.20
2019-04-22T16:01:12.920Z,191.23
2019-04-22T16:03:36.822Z,221.13
2019-04-22T16:06:08.314Z,170.00
2019-04-22T16:08:40.925Z,165.27
2019-04-22T16:11:10.114Z,135.10
2019-04-22T16:13:40.310Z,92.23
2019-04-22T16:16:10.468Z,44.73
2019-04-22T16:18:40.620Z,74.40
2019-04-22T16:21:11.293Z,62.97
2019-04-22T16:23:47.532Z,66.50
2019-04-22T16:26:22.071Z,49.20
2019-04-22T16:28:55.423Z,64.23
2019-04-22T16:31:25.100Z,52.13
2019-04-22T16:33:56.279Z,47.80
2019-04-22T16:36:26.924Z,45.70
2019-04-22T16:38:57.140Z,63.40
2019-04-22T16:41:28.575Z,58.10
2019-04-22T16:43:58.802Z,52.93
2019-04-22T16:46:29.743Z,33.90
2019-04-22T16:49:01.335Z,77.40
2019-04-22T16:51:32.114Z,73.40
2019-04-22T16:54:02.341Z,41.20
2019-04-22T16:56:35.094Z,42.83
2019-04-22T16:59:04.876Z,48.23
2019-04-22T17:02:01.060Z,64.13
2019-04-22T17:04:50.839Z,67.10
2019-04-22T17:07:22.434Z,43.67
2019-04-22T17:09:52.485Z,57.63
2019-04-22T17:12:23.866Z,53.47
2019-04-22T17:15:00.085Z,62.60
2019-04-22T17:17:26.635Z,45.37
2019-04-22T17:19:57.665Z,47.77
2019-04-22T17:22:29.341Z,35.10
2019-04-22T17:25:00.217Z,48.13
2019-04-22T17:27:32.715Z,36.87
2019-04-22T17:30:02.434Z,36.97
2019-04-22T17:32:33.623Z,37.53
2019-04-22T17:35:04.142Z,40.47
2019-04-22T17:37:37.330Z,37.83
2019-04-22T17:40:24.374Z,34.83
2019-04-22T17:42:55.394Z,45.60
2019-04-22T17:45:41.663Z,61.60
2019-04-22T17:48:31.203Z,54.30
2019-04-22T17:51:14.477Z,37.07
2019-04-22T17:53:40.266Z,44.90
2019-04-22T17:56:08.628Z,66.13
2019-04-22T17:58:45.100Z,33.60
2019-04-22T18:01:17.931Z,47.23
2019-04-22T18:03:33.853Z,45.97
2019-04-22T18:06:04.583Z,53.07
2019-04-22T18:08:52.096Z,39.57
2019-04-22T18:11:29.417Z,30.87
2019-04-22T18:14:03.175Z,46.87
2019-04-22T18:16:35.807Z,34.13
2019-04-22T18:18:59.867Z,34.43
2019-04-22T18:21:29.159Z,43.80
2019-04-22T18:23:54.206Z,34.83
2019-04-22T18:26:32.214Z,35.10
2019-04-22T18:29:07.408Z,32.23
2019-04-22T18:31:30.745Z,33.23
2019-04-22T18:34:04.097Z,43.60
2019-04-22T18:36:38.752Z,34.80
2019-04-22T18:39:21.174Z,35.30
2019-04-22T18:41:46.725Z,38.03
2019-04-22T18:44:16.920Z,29.33
2019-04-22T18:46:50.385Z,45.07
2019-04-22T18:49:17.245Z,42.83
2019-04-22T18:52:18.328Z,37.10
2019-04-22T18:55:04.134Z,31.53
2019-04-22T18:57:44.095Z,40.63
2019-04-22T19:00:10.387Z,39.03
2019-04-22T19:02:53.197Z,38.13
2019-04-22T19:05:28.173Z,24.90
2019-04-22T19:08:12.697Z,36.70
2019-04-22T19:10:54.072Z,38.43
2019-04-22T19:13:49.113Z,36.90
2019-04-22T19:15:54.292Z,30.67
2019-04-22T19:18:27.080Z,30.87
2019-04-22T19:20:51.343Z,43.83
2019-04-22T19:23:23.967Z,37.17
2019-04-22T19:25:47.199Z,43.27
2019-04-22T19:28:29.619Z,24.53
2019-04-22T19:31:02.732Z,51.73
2019-04-22T19:33:32.990Z,49.03
2019-04-22T19:36:01.467Z,36.63
2019-04-22T19:38:21.914Z,39.33
2019-04-22T19:43:41.041Z,42.00
2019-04-22T19:46:08.975Z,33.50
2019-04-22T19:48:45.507Z,28.80
2019-04-22T19:51:23.379Z,38.37
2019-04-22T19:53:54.287Z,38.33
2019-04-22T19:56:17.784Z,36.20
2019-04-22T19:58:53.193Z,36.57
2019-04-22T20:01:47.508Z,34.40
2019-04-22T20:04:44.437Z,34.00
2019-04-22T20:07:09.474Z,40.83
2019-04-22T20:09:47.839Z,40.03
2019-04-22T20:12:19.070Z,29.23
2019-04-22T20:14:46.449Z,28.80
2019-04-22T20:17:24.156Z,32.30
2019-04-22T20:19:59.134Z,35.83
2019-04-22T20:22:23.335Z,39.10
2019-04-22T20:24:47.462Z,53.30
2019-04-22T20:27:31.715Z,38.67
2019-04-22T20:30:02.338Z,56.80
2019-04-22T20:32:26.292Z,32.53
2019-04-22T20:35:06.017Z,30.90
2019-04-22T20:37:39.951Z,33.50
2019-04-22T20:40:10.793Z,28.23
2019-04-22T20:42:48.983Z,61.40
2019-04-22T20:45:15.008Z,36.03
2019-04-22T20:47:40.313Z,43.57
2019-04-22T20:50:20.970Z,36.70
2019-04-22T20:52:58.991Z,33.90
2019-04-22T20:55:20.574Z,38.33
2019-04-22T20:57:59.098Z,34.27
2019-04-22T21:00:27.988Z,41.23
2019-04-22T21:02:52.825Z,46.57
2019-04-22T21:05:27.765Z,37.87
2019-04-22T21:08:11.430Z,39.90
2019-04-22T21:10:34.071Z,43.23
2019-04-22T21:13:11.614Z,43.50
2019-04-22T21:15:45.555Z,35.70
2019-04-22T21:18:12.368Z,44.63
2019-04-22T21:20:51.705Z,38.83
2019-04-22T21:23:16.540Z,40.07
2019-04-22T21:25:39.572Z,32.17
2019-04-22T21:28:22.994Z,42.13
2019-04-22T21:30:53.086Z,47.30
2019-04-22T21:33:18.378Z,42.57
2019-04-22T21:36:08.430Z,47.70
2019-04-22T21:38:33.126Z,44.07
2019-04-22T21:41:03.478Z,44.83
2019-04-22T21:43:35.881Z,30.37
2019-04-22T21:46:10.447Z,36.40
2019-04-22T21:48:42.136Z,33.50
2019-04-22T21:51:12.330Z,40.90
2019-04-22T21:53:52.166Z,52.07
2019-04-22T21:56:29.002Z,106.60
2019-04-22T21:59:00.216Z,336.67
2019-04-22T22:04:17.338Z,347.87
2019-04-22T22:06:40.321Z,402.63
2019-04-22T22:09:23.213Z,447.67
2019-04-22T22:11:49.258Z,444.50
2019-04-22T22:14:22.530Z,350.80
2019-04-22T22:16:47.496Z,326.10
2019-04-22T22:19:28.401Z,449.63
2019-04-22T22:22:31.051Z,525.97
2019-04-22T22:24:34.358Z,556.57
2019-04-22T22:27:01.441Z,632.33
2019-04-22T22:29:43.257Z,666.10
2019-04-22T22:32:04.825Z,632.93
2019-04-22T22:34:36.170Z,601.33
2019-04-22T22:37:02.048Z,603.50
2019-04-22T22:39:31.070Z,616.63
2019-04-22T22:41:52.020Z,483.90
2019-04-22T22:44:31.945Z,373.77
2019-04-22T22:47:15.591Z,290.83
2019-04-22T22:49:49.883Z,163.43
2019-04-22T22:52:45.217Z,97.43
2019-04-22T22:54:46.279Z,118.37
2019-04-22T22:57:29.299Z,191.73
2019-04-22T22:59:50.054Z,181.57
2019-04-22T23:02:22.976Z,237.90
2019-04-22T23:04:59.135Z,388.97
2019-04-22T23:07:47.596Z,351.57
2019-04-22T23:10:00.319Z,239.97
2019-04-22T23:12:44.043Z,290.10
2019-04-22T23:14:59.051Z,313.90
2019-04-22T23:17:22.544Z,286.70
2019-04-22T23:19:52.119Z,276.80
2019-04-22T23:22:28.406Z,269.37
2019-04-22T23:25:17.752Z,378.30
2019-04-22T23:27:51.509Z,231.37
2019-04-22T23:30:25.205Z,95.87
2019-04-22T23:33:05.846Z,67.40
2019-04-22T23:35:51.826Z,63.03
2019-04-22T23:38:25.544Z,241.80
2019-04-22T23:41:00.421Z,249.53
2019-04-22T23:43:38.959Z,221.10
2019-04-22T23:46:05.827Z,332.70
2019-04-22T23:48:31.480Z,317.23
2019-04-22T23:51:09.317Z,371.67
2019-04-22T23:54:00.886Z,250.50
2019-04-22T23:56:15.136Z,288.53
